sensor_id;sensor_type;location;lat;lon;timestamp;P1;durP1;ratioP1;P2;durP2;ratioP2
14817;SDS011;7500;57.698;11.986;2023-03-01T00:01:08;4.07;;;3.20;;
14817;SDS011;7500;57.698;11.986;2023-03-01T00:03:36;8.37;;;4.00;;
14817;SDS011;7500;57.698;11.986;2023-03-01T00:06:04;8.37;;;3.60;;
14817;SDS011;7500;57.698;11.986;2023-03-01T00:08:32;9.60;;;4.10;;
14817;SDS011;7500;57.698;11.986;2023-03-01T00:11:00;8.07;;;3.57;;
14817;SDS011;7500;57.698;11.986;2023-03-01T00:13:28;6.53;;;3.50;;
14817;SDS011;7500;57.698;11.986;2023-03-01T00:15:57;14.60;;;4.17;;
14817;SDS011;7500;57.698;11.986;2023-03-01T00:18:24;7.00;;;3.90;;
14817;SDS011;7500;57.698;11.986;2023-03-01T00:20:51;7.90;;;3.90;;
14817;SDS011;7500;57.698;11.986;2023-03-01T00:23:19;6.50;;;3.87;;
14817;SDS011;7500;57.698;11.986;2023-03-01T00:25:46;7.37;;;3.40;;
14817;SDS011;7500;57.698;11.986;2023-03-01T00:28:14;8.30;;;3.43;;
14817;SDS011;7500;57.698;11.986;2023-03-01T00:30:41;5.70;;;3.37;;
14817;SDS011;7500;57.698;11.986;2023-03-01T00:33:09;11.27;;;4.17;;
14817;SDS011;7500;57.698;11.986;2023-03-01T00:35:36;9.67;;;3.37;;
14817;SDS011;7500;57.698;11.986;2023-03-01T00:38:03;6.07;;;3.60;;
14817;SDS011;7500;57.698;11.986;2023-03-01T00:40:32;7.10;;;3.50;;
14817;SDS011;7500;57.698;11.986;2023-03-01T00:43:00;9.90;;;3.30;;
14817;SDS011;7500;57.698;11.986;2023-03-01T00:45:27;9.73;;;3.37;;
14817;SDS011;7500;57.698;11.986;2023-03-01T00:47:56;6.33;;;2.90;;
14817;SDS011;7500;57.698;11.986;2023-03-01T00:50:24;5.53;;;2.83;;
14817;SDS011;7500;57.698;11.986;2023-03-01T00:52:52;4.57;;;2.77;;
14817;SDS011;7500;57.698;11.986;2023-03-01T00:55:19;7.93;;;3.17;;
14817;SDS011;7500;57.698;11.986;2023-03-01T00:57:47;3.37;;;2.10;;
14817;SDS011;7500;57.698;11.986;2023-03-01T01:00:14;3.77;;;2.53;;
14817;SDS011;7500;57.698;11.986;2023-03-01T01:02:41;5.63;;;3.40;;
14817;SDS011;7500;57.698;11.986;2023-03-01T01:05:08;5.17;;;3.40;;
14817;SDS011;7500;57.698;11.986;2023-03-01T01:07:37;6.93;;;2.87;;
14817;SDS011;7500;57.698;11.986;2023-03-01T01:10:04;5.70;;;2.70;;
14817;SDS011;7500;57.698;11.986;2023-03-01T01:12:33;3.87;;;2.60;;
14817;SDS011;7500;57.698;11.986;2023-03-01T01:14:59;11.77;;;3.57;;
14817;SDS011;7500;57.698;11.986;2023-03-01T01:17:26;5.83;;;3.00;;
14817;SDS011;7500;57.698;11.986;2023-03-01T01:19:53;4.27;;;2.83;;
14817;SDS011;7500;57.698;11.986;2023-03-01T01:22:20;5.53;;;3.17;;
14817;SDS011;7500;57.698;11.986;2023-03-01T01:24:48;9.33;;;3.30;;
14817;SDS011;7500;57.698;11.986;2023-03-01T01:27:15;5.47;;;3.20;;
14817;SDS011;7500;57.698;11.986;2023-03-01T01:29:42;8.50;;;3.43;;
14817;SDS011;7500;57.698;11.986;2023-03-01T01:32:09;6.63;;;3.43;;
14817;SDS011;7500;57.698;11.986;2023-03-01T01:34:36;4.87;;;3.30;;
14817;SDS011;7500;57.698;11.986;2023-03-01T01:37:03;5.90;;;3.40;;
14817;SDS011;7500;57.698;11.986;2023-03-01T01:39:32;4.60;;;3.00;;
14817;SDS011;7500;57.698;11.986;2023-03-01T01:42:01;4.93;;;3.00;;
14817;SDS011;7500;57.698;11.986;2023-03-01T01:44:28;4.27;;;2.97;;
14817;SDS011;7500;57.698;11.986;2023-03-01T01:46:55;14.47;;;3.93;;
14817;SDS011;7500;57.698;11.986;2023-03-01T01:49:27;5.03;;;2.83;;
14817;SDS011;7500;57.698;11.986;2023-03-01T01:52:01;3.10;;;2.70;;
14817;SDS011;7500;57.698;11.986;2023-03-01T01:54:35;5.80;;;3.07;;
14817;SDS011;7500;57.698;11.986;2023-03-01T01:57:13;4.07;;;2.73;;
14817;SDS011;7500;57.698;11.986;2023-03-01T01:59:43;4.53;;;2.97;;
14817;SDS011;7500;57.698;11.986;2023-03-01T02:02:13;5.63;;;2.73;;
14817;SDS011;7500;57.698;11.986;2023-03-01T02:04:40;4.80;;;3.13;;
14817;SDS011;7500;57.698;11.986;2023-03-01T02:07:09;6.90;;;2.80;;
14817;SDS011;7500;57.698;11.986;2023-03-01T02:09:42;5.67;;;2.63;;
14817;SDS011;7500;57.698;11.986;2023-03-01T02:12:13;5.20;;;2.70;;
14817;SDS011;7500;57.698;11.986;2023-03-01T02:14:42;3.60;;;2.33;;
14817;SDS011;7500;57.698;11.986;2023-03-01T02:17:09;4.47;;;2.77;;
14817;SDS011;7500;57.698;11.986;2023-03-01T02:19:42;6.20;;;2.60;;
14817;SDS011;7500;57.698;11.986;2023-03-01T02:22:20;3.20;;;2.30;;
14817;SDS011;7500;57.698;11.986;2023-03-01T02:24:53;4.53;;;2.40;;
14817;SDS011;7500;57.698;11.986;2023-03-01T02:27:38;2.53;;;2.10;;
14817;SDS011;7500;57.698;11.986;2023-03-01T02:30:12;3.43;;;2.03;;
14817;SDS011;7500;57.698;11.986;2023-03-01T02:32:39;2.93;;;2.17;;
14817;SDS011;7500;57.698;11.986;2023-03-01T02:35:08;4.90;;;2.20;;
14817;SDS011;7500;57.698;11.986;2023-03-01T02:37:37;4.83;;;2.37;;
14817;SDS011;7500;57.698;11.986;2023-03-01T02:40:06;4.93;;;2.20;;
14817;SDS011;7500;57.698;11.986;2023-03-01T02:42:40;4.13;;;2.40;;
14817;SDS011;7500;57.698;11.986;2023-03-01T02:45:13;2.97;;;1.90;;
14817;SDS011;7500;57.698;11.986;2023-03-01T02:47:40;3.20;;;2.00;;
14817;SDS011;7500;57.698;11.986;2023-03-01T02:50:12;4.40;;;2.00;;
14817;SDS011;7500;57.698;11.986;2023-03-01T02:52:52;2.53;;;2.00;;
14817;SDS011;7500;57.698;11.986;2023-03-01T02:55:24;5.67;;;1.90;;
14817;SDS011;7500;57.698;11.986;2023-03-01T02:57:52;2.13;;;1.70;;
14817;SDS011;7500;57.698;11.986;2023-03-01T03:00:23;2.83;;;2.10;;
14817;SDS011;7500;57.698;11.986;2023-03-01T03:02:52;3.27;;;2.10;;
14817;SDS011;7500;57.698;11.986;2023-03-01T03:05:22;2.70;;;1.83;;
14817;SDS011;7500;57.698;11.986;2023-03-01T03:07:50;3.03;;;1.93;;
14817;SDS011;7500;57.698;11.986;2023-03-01T03:10:18;3.10;;;1.73;;
14817;SDS011;7500;57.698;11.986;2023-03-01T03:12:49;3.37;;;2.03;;
14817;SDS011;7500;57.698;11.986;2023-03-01T03:15:17;2.07;;;1.60;;
14817;SDS011;7500;57.698;11.986;2023-03-01T03:17:47;2.47;;;1.73;;
14817;SDS011;7500;57.698;11.986;2023-03-01T03:20:15;6.90;;;2.00;;
14817;SDS011;7500;57.698;11.986;2023-03-01T03:22:45;2.50;;;1.80;;
14817;SDS011;7500;57.698;11.986;2023-03-01T03:25:12;3.27;;;1.90;;
14817;SDS011;7500;57.698;11.986;2023-03-01T03:27:40;3.80;;;1.90;;
14817;SDS011;7500;57.698;11.986;2023-03-01T03:30:10;2.97;;;2.00;;
14817;SDS011;7500;57.698;11.986;2023-03-01T03:32:40;2.53;;;1.80;;
14817;SDS011;7500;57.698;11.986;2023-03-01T03:35:18;3.33;;;1.77;;
14817;SDS011;7500;57.698;11.986;2023-03-01T03:37:47;2.90;;;1.90;;
14817;SDS011;7500;57.698;11.986;2023-03-01T03:40:31;3.97;;;1.93;;
14817;SDS011;7500;57.698;11.986;2023-03-01T03:43:00;2.40;;;2.00;;
14817;SDS011;7500;57.698;11.986;2023-03-01T03:45:27;2.13;;;1.90;;
14817;SDS011;7500;57.698;11.986;2023-03-01T03:47:54;5.13;;;2.47;;
14817;SDS011;7500;57.698;11.986;2023-03-01T03:50:22;4.13;;;2.60;;
14817;SDS011;7500;57.698;11.986;2023-03-01T03:52:49;3.97;;;2.60;;
14817;SDS011;7500;57.698;11.986;2023-03-01T03:55:16;3.70;;;2.50;;
14817;SDS011;7500;57.698;11.986;2023-03-01T03:57:45;4.33;;;2.57;;
14817;SDS011;7500;57.698;11.986;2023-03-01T04:00:17;5.73;;;2.47;;
14817;SDS011;7500;57.698;11.986;2023-03-01T04:02:45;5.13;;;2.50;;
14817;SDS011;7500;57.698;11.986;2023-03-01T04:05:13;8.03;;;2.70;;
14817;SDS011;7500;57.698;11.986;2023-03-01T04:07:43;5.20;;;2.50;;
14817;SDS011;7500;57.698;11.986;2023-03-01T04:10:12;4.97;;;2.37;;
14817;SDS011;7500;57.698;11.986;2023-03-01T04:12:41;3.63;;;2.50;;
14817;SDS011;7500;57.698;11.986;2023-03-01T04:15:09;4.60;;;2.23;;
14817;SDS011;7500;57.698;11.986;2023-03-01T04:17:39;5.97;;;2.10;;
14817;SDS011;7500;57.698;11.986;2023-03-01T04:20:07;3.90;;;2.00;;
14817;SDS011;7500;57.698;11.986;2023-03-01T04:22:36;4.33;;;2.00;;
14817;SDS011;7500;57.698;11.986;2023-03-01T04:25:05;3.07;;;1.97;;
14817;SDS011;7500;57.698;11.986;2023-03-01T04:27:33;6.63;;;2.70;;
14817;SDS011;7500;57.698;11.986;2023-03-01T04:30:00;4.23;;;2.07;;
14817;SDS011;7500;57.698;11.986;2023-03-01T04:32:27;4.17;;;2.23;;
14817;SDS011;7500;57.698;11.986;2023-03-01T04:34:54;3.07;;;2.27;;
14817;SDS011;7500;57.698;11.986;2023-03-01T04:37:21;3.30;;;1.87;;
14817;SDS011;7500;57.698;11.986;2023-03-01T04:39:49;2.80;;;1.90;;
14817;SDS011;7500;57.698;11.986;2023-03-01T04:42:17;5.23;;;2.37;;
14817;SDS011;7500;57.698;11.986;2023-03-01T04:44:45;3.10;;;2.20;;
14817;SDS011;7500;57.698;11.986;2023-03-01T04:47:12;4.03;;;2.13;;
14817;SDS011;7500;57.698;11.986;2023-03-01T04:49:39;2.60;;;2.10;;
14817;SDS011;7500;57.698;11.986;2023-03-01T04:52:06;5.17;;;2.50;;
14817;SDS011;7500;57.698;11.986;2023-03-01T04:54:34;7.07;;;2.50;;
14817;SDS011;7500;57.698;11.986;2023-03-01T04:57:01;6.87;;;2.53;;
14817;SDS011;7500;57.698;11.986;2023-03-01T04:59:30;4.97;;;2.10;;
14817;SDS011;7500;57.698;11.986;2023-03-01T05:01:57;3.23;;;2.07;;
14817;SDS011;7500;57.698;11.986;2023-03-01T05:04:25;6.80;;;2.33;;
14817;SDS011;7500;57.698;11.986;2023-03-01T05:06:52;3.87;;;2.00;;
14817;SDS011;7500;57.698;11.986;2023-03-01T05:09:21;4.03;;;2.60;;
14817;SDS011;7500;57.698;11.986;2023-03-01T05:11:47;4.83;;;2.70;;
14817;SDS011;7500;57.698;11.986;2023-03-01T05:14:16;4.53;;;2.40;;
14817;SDS011;7500;57.698;11.986;2023-03-01T05:16:45;4.07;;;2.37;;
14817;SDS011;7500;57.698;11.986;2023-03-01T05:19:12;3.93;;;2.40;;
14817;SDS011;7500;57.698;11.986;2023-03-01T05:21:40;3.13;;;2.37;;
14817;SDS011;7500;57.698;11.986;2023-03-01T05:24:21;8.03;;;2.67;;
14817;SDS011;7500;57.698;11.986;2023-03-01T05:26:48;5.50;;;2.70;;
14817;SDS011;7500;57.698;11.986;2023-03-01T05:29:17;4.17;;;2.57;;
14817;SDS011;7500;57.698;11.986;2023-03-01T05:31:51;4.50;;;2.80;;
14817;SDS011;7500;57.698;11.986;2023-03-01T05:34:22;5.03;;;3.10;;
14817;SDS011;7500;57.698;11.986;2023-03-01T05:36:50;4.50;;;2.73;;
14817;SDS011;7500;57.698;11.986;2023-03-01T05:39:18;7.70;;;3.07;;
14817;SDS011;7500;57.698;11.986;2023-03-01T05:41:47;5.83;;;2.77;;
14817;SDS011;7500;57.698;11.986;2023-03-01T05:44:14;5.87;;;3.03;;
14817;SDS011;7500;57.698;11.986;2023-03-01T05:46:42;4.85;;;3.13;;
14817;SDS011;7500;57.698;11.986;2023-03-01T05:49:11;8.50;;;2.77;;
14817;SDS011;7500;57.698;11.986;2023-03-01T05:51:38;6.57;;;3.13;;
14817;SDS011;7500;57.698;11.986;2023-03-01T05:54:06;5.20;;;2.93;;
14817;SDS011;7500;57.698;11.986;2023-03-01T05:56:34;6.17;;;2.40;;
14817;SDS011;7500;57.698;11.986;2023-03-01T05:59:01;7.60;;;2.93;;
14817;SDS011;7500;57.698;11.986;2023-03-01T06:01:30;3.40;;;2.20;;
14817;SDS011;7500;57.698;11.986;2023-03-01T06:03:57;7.50;;;2.43;;
14817;SDS011;7500;57.698;11.986;2023-03-01T06:06:25;3.43;;;2.47;;
14817;SDS011;7500;57.698;11.986;2023-03-01T06:08:52;4.50;;;2.50;;
14817;SDS011;7500;57.698;11.986;2023-03-01T06:11:20;4.67;;;2.30;;
14817;SDS011;7500;57.698;11.986;2023-03-01T06:13:47;6.07;;;2.50;;
14817;SDS011;7500;57.698;11.986;2023-03-01T06:16:14;9.00;;;2.63;;
14817;SDS011;7500;57.698;11.986;2023-03-01T06:18:41;4.57;;;2.10;;
14817;SDS011;7500;57.698;11.986;2023-03-01T06:21:08;4.07;;;2.30;;
14817;SDS011;7500;57.698;11.986;2023-03-01T06:23:37;4.67;;;2.10;;
14817;SDS011;7500;57.698;11.986;2023-03-01T06:26:07;3.37;;;2.33;;
14817;SDS011;7500;57.698;11.986;2023-03-01T06:28:35;2.87;;;2.07;;
14817;SDS011;7500;57.698;11.986;2023-03-01T06:31:02;6.77;;;2.40;;
14817;SDS011;7500;57.698;11.986;2023-03-01T06:33:29;5.20;;;2.37;;
14817;SDS011;7500;57.698;11.986;2023-03-01T06:35:56;6.43;;;2.40;;
14817;SDS011;7500;57.698;11.986;2023-03-01T06:38:23;3.93;;;2.20;;
14817;SDS011;7500;57.698;11.986;2023-03-01T06:40:54;5.77;;;2.07;;
14817;SDS011;7500;57.698;11.986;2023-03-01T06:43:22;4.97;;;2.23;;
14817;SDS011;7500;57.698;11.986;2023-03-01T06:45:49;5.50;;;2.07;;
14817;SDS011;7500;57.698;11.986;2023-03-01T06:48:17;3.97;;;1.90;;
14817;SDS011;7500;57.698;11.986;2023-03-01T06:50:44;5.00;;;1.97;;
14817;SDS011;7500;57.698;11.986;2023-03-01T06:53:10;9.53;;;2.23;;
14817;SDS011;7500;57.698;11.986;2023-03-01T06:55:37;5.20;;;2.70;;
14817;SDS011;7500;57.698;11.986;2023-03-01T06:58:06;7.33;;;3.40;;
14817;SDS011;7500;57.698;11.986;2023-03-01T07:00:33;6.73;;;2.70;;
14817;SDS011;7500;57.698;11.986;2023-03-01T07:03:00;5.03;;;2.30;;
14817;SDS011;7500;57.698;11.986;2023-03-01T07:05:28;6.63;;;2.80;;
14817;SDS011;7500;57.698;11.986;2023-03-01T07:07:55;7.33;;;2.43;;
14817;SDS011;7500;57.698;11.986;2023-03-01T07:10:22;4.77;;;2.17;;
14817;SDS011;7500;57.698;11.986;2023-03-01T07:12:50;7.10;;;2.17;;
14817;SDS011;7500;57.698;11.986;2023-03-01T07:15:21;4.30;;;2.00;;
14817;SDS011;7500;57.698;11.986;2023-03-01T07:17:48;5.80;;;2.17;;
14817;SDS011;7500;57.698;11.986;2023-03-01T07:20:16;4.47;;;2.57;;
14817;SDS011;7500;57.698;11.986;2023-03-01T07:22:43;4.63;;;2.00;;
14817;SDS011;7500;57.698;11.986;2023-03-01T07:25:10;8.90;;;4.17;;
14817;SDS011;7500;57.698;11.986;2023-03-01T07:27:37;8.17;;;2.57;;
14817;SDS011;7500;57.698;11.986;2023-03-01T07:30:05;3.27;;;2.40;;
14817;SDS011;7500;57.698;11.986;2023-03-01T07:32:34;5.60;;;1.90;;
14817;SDS011;7500;57.698;11.986;2023-03-01T07:35:01;6.07;;;2.40;;
14817;SDS011;7500;57.698;11.986;2023-03-01T07:37:28;7.63;;;2.13;;
14817;SDS011;7500;57.698;11.986;2023-03-01T07:39:55;10.23;;;5.27;;
14817;SDS011;7500;57.698;11.986;2023-03-01T07:42:22;5.50;;;2.70;;
14817;SDS011;7500;57.698;11.986;2023-03-01T07:44:49;5.00;;;2.30;;
14817;SDS011;7500;57.698;11.986;2023-03-01T07:47:16;6.83;;;2.03;;
14817;SDS011;7500;57.698;11.986;2023-03-01T07:49:45;6.63;;;2.40;;
14817;SDS011;7500;57.698;11.986;2023-03-01T07:52:12;6.73;;;2.43;;
14817;SDS011;7500;57.698;11.986;2023-03-01T07:54:38;7.47;;;2.37;;
14817;SDS011;7500;57.698;11.986;2023-03-01T07:57:08;5.93;;;2.10;;
14817;SDS011;7500;57.698;11.986;2023-03-01T07:59:35;4.43;;;2.00;;
14817;SDS011;7500;57.698;11.986;2023-03-01T08:02:02;4.37;;;1.73;;
14817;SDS011;7500;57.698;11.986;2023-03-01T08:04:29;3.40;;;1.87;;
14817;SDS011;7500;57.698;11.986;2023-03-01T08:06:57;4.23;;;2.20;;
14817;SDS011;7500;57.698;11.986;2023-03-01T08:09:24;2.47;;;1.73;;
14817;SDS011;7500;57.698;11.986;2023-03-01T08:11:51;4.80;;;1.90;;
14817;SDS011;7500;57.698;11.986;2023-03-01T08:14:19;3.97;;;1.43;;
14817;SDS011;7500;57.698;11.986;2023-03-01T08:16:48;4.20;;;1.40;;
14817;SDS011;7500;57.698;11.986;2023-03-01T08:19:15;2.57;;;1.53;;
14817;SDS011;7500;57.698;11.986;2023-03-01T08:21:42;3.33;;;1.23;;
14817;SDS011;7500;57.698;11.986;2023-03-01T08:24:10;3.90;;;1.63;;
14817;SDS011;7500;57.698;11.986;2023-03-01T08:26:37;2.37;;;1.50;;
14817;SDS011;7500;57.698;11.986;2023-03-01T08:29:04;1.00;;;0.77;;
14817;SDS011;7500;57.698;11.986;2023-03-01T08:31:32;1.10;;;1.00;;
14817;SDS011;7500;57.698;11.986;2023-03-01T08:34:02;1.97;;;1.10;;
14817;SDS011;7500;57.698;11.986;2023-03-01T08:36:31;1.53;;;0.80;;
14817;SDS011;7500;57.698;11.986;2023-03-01T08:39:01;2.83;;;0.80;;
14817;SDS011;7500;57.698;11.986;2023-03-01T08:41:29;2.50;;;1.00;;
14817;SDS011;7500;57.698;11.986;2023-03-01T08:43:57;0.77;;;0.70;;
14817;SDS011;7500;57.698;11.986;2023-03-01T08:46:34;1.33;;;0.73;;
14817;SDS011;7500;57.698;11.986;2023-03-01T08:49:03;1.17;;;0.40;;
14817;SDS011;7500;57.698;11.986;2023-03-01T08:51:30;0.97;;;0.70;;
14817;SDS011;7500;57.698;11.986;2023-03-01T08:54:01;1.20;;;0.50;;
14817;SDS011;7500;57.698;11.986;2023-03-01T08:56:28;1.63;;;0.60;;
14817;SDS011;7500;57.698;11.986;2023-03-01T08:58:55;1.17;;;0.53;;
14817;SDS011;7500;57.698;11.986;2023-03-01T09:01:22;1.00;;;0.70;;
14817;SDS011;7500;57.698;11.986;2023-03-01T09:03:51;0.97;;;0.50;;
14817;SDS011;7500;57.698;11.986;2023-03-01T09:06:18;0.53;;;0.40;;
14817;SDS011;7500;57.698;11.986;2023-03-01T09:08:45;1.63;;;0.50;;
14817;SDS011;7500;57.698;11.986;2023-03-01T09:11:15;0.60;;;0.40;;
14817;SDS011;7500;57.698;11.986;2023-03-01T09:13:43;1.80;;;0.60;;
14817;SDS011;7500;57.698;11.986;2023-03-01T09:16:11;1.50;;;0.60;;
14817;SDS011;7500;57.698;11.986;2023-03-01T09:18:39;1.13;;;0.63;;
14817;SDS011;7500;57.698;11.986;2023-03-01T09:21:08;2.20;;;0.53;;
14817;SDS011;7500;57.698;11.986;2023-03-01T09:23:37;1.23;;;0.57;;
14817;SDS011;7500;57.698;11.986;2023-03-01T09:26:05;0.70;;;0.47;;
14817;SDS011;7500;57.698;11.986;2023-03-01T09:28:34;1.03;;;0.60;;
14817;SDS011;7500;57.698;11.986;2023-03-01T09:31:01;2.17;;;0.67;;
14817;SDS011;7500;57.698;11.986;2023-03-01T09:33:29;0.80;;;0.60;;
14817;SDS011;7500;57.698;11.986;2023-03-01T09:35:58;1.10;;;0.50;;
14817;SDS011;7500;57.698;11.986;2023-03-01T09:38:26;1.80;;;0.87;;
14817;SDS011;7500;57.698;11.986;2023-03-01T09:40:54;1.73;;;0.70;;
14817;SDS011;7500;57.698;11.986;2023-03-01T09:43:23;1.33;;;0.50;;
14817;SDS011;7500;57.698;11.986;2023-03-01T09:45:56;2.33;;;0.30;;
14817;SDS011;7500;57.698;11.986;2023-03-01T09:48:27;2.00;;;0.50;;
14817;SDS011;7500;57.698;11.986;2023-03-01T09:50:59;1.00;;;0.50;;
14817;SDS011;7500;57.698;11.986;2023-03-01T09:53:35;1.93;;;0.53;;
14817;SDS011;7500;57.698;11.986;2023-03-01T09:56:03;1.73;;;0.80;;
14817;SDS011;7500;57.698;11.986;2023-03-01T09:58:40;1.73;;;0.50;;
14817;SDS011;7500;57.698;11.986;2023-03-01T10:01:25;1.20;;;0.70;;
14817;SDS011;7500;57.698;11.986;2023-03-01T10:04:20;0.50;;;0.50;;
14817;SDS011;7500;57.698;11.986;2023-03-01T10:06:57;1.03;;;0.50;;
14817;SDS011;7500;57.698;11.986;2023-03-01T10:09:34;1.20;;;0.50;;
14817;SDS011;7500;57.698;11.986;2023-03-01T10:12:02;1.00;;;0.50;;
14817;SDS011;7500;57.698;11.986;2023-03-01T10:14:36;1.83;;;0.50;;
14817;SDS011;7500;57.698;11.986;2023-03-01T10:17:12;1.67;;;0.53;;
14817;SDS011;7500;57.698;11.986;2023-03-01T10:19:50;1.70;;;0.57;;
14817;SDS011;7500;57.698;11.986;2023-03-01T10:22:18;1.43;;;0.73;;
14817;SDS011;7500;57.698;11.986;2023-03-01T10:24:48;2.27;;;0.50;;
14817;SDS011;7500;57.698;11.986;2023-03-01T10:27:17;1.50;;;0.60;;
14817;SDS011;7500;57.698;11.986;2023-03-01T10:29:49;0.67;;;0.47;;
14817;SDS011;7500;57.698;11.986;2023-03-01T10:32:22;1.57;;;0.80;;
14817;SDS011;7500;57.698;11.986;2023-03-01T10:34:49;0.70;;;0.50;;
14817;SDS011;7500;57.698;11.986;2023-03-01T10:37:17;2.43;;;0.80;;
14817;SDS011;7500;57.698;11.986;2023-03-01T10:40:00;3.20;;;0.60;;
14817;SDS011;7500;57.698;11.986;2023-03-01T10:42:33;1.90;;;0.50;;
14817;SDS011;7500;57.698;11.986;2023-03-01T10:45:17;6.90;;;1.07;;
14817;SDS011;7500;57.698;11.986;2023-03-01T10:48:03;0.33;;;0.20;;
14817;SDS011;7500;57.698;11.986;2023-03-01T10:50:32;1.47;;;0.87;;
14817;SDS011;7500;57.698;11.986;2023-03-01T10:53:00;5.23;;;1.07;;
14817;SDS011;7500;57.698;11.986;2023-03-01T10:55:32;3.63;;;0.60;;
14817;SDS011;7500;57.698;11.986;2023-03-01T10:58:08;10.97;;;1.43;;
14817;SDS011;7500;57.698;11.986;2023-03-01T11:00:48;4.87;;;0.67;;
14817;SDS011;7500;57.698;11.986;2023-03-01T11:03:18;6.57;;;0.90;;
14817;SDS011;7500;57.698;11.986;2023-03-01T11:05:52;2.93;;;0.70;;
14817;SDS011;7500;57.698;11.986;2023-03-01T11:11:22;1.87;;;0.50;;
14817;SDS011;7500;57.698;11.986;2023-03-01T11:13:56;4.70;;;0.53;;
14817;SDS011;7500;57.698;11.986;2023-03-01T11:16:29;9.43;;;0.97;;
14817;SDS011;7500;57.698;11.986;2023-03-01T11:19:00;2.67;;;0.50;;
14817;SDS011;7500;57.698;11.986;2023-03-01T11:21:39;1.20;;;0.37;;
14817;SDS011;7500;57.698;11.986;2023-03-01T11:24:11;4.03;;;0.57;;
14817;SDS011;7500;57.698;11.986;2023-03-01T11:26:42;7.40;;;1.17;;
14817;SDS011;7500;57.698;11.986;2023-03-01T11:29:13;3.90;;;0.50;;
14817;SDS011;7500;57.698;11.986;2023-03-01T11:31:47;7.77;;;1.00;;
14817;SDS011;7500;57.698;11.986;2023-03-01T11:34:17;7.23;;;1.90;;
14817;SDS011;7500;57.698;11.986;2023-03-01T11:36:51;9.50;;;1.10;;
14817;SDS011;7500;57.698;11.986;2023-03-01T11:39:23;6.27;;;1.00;;
14817;SDS011;7500;57.698;11.986;2023-03-01T11:42:02;3.47;;;1.10;;
14817;SDS011;7500;57.698;11.986;2023-03-01T11:44:36;2.20;;;0.47;;
14817;SDS011;7500;57.698;11.986;2023-03-01T11:47:12;2.07;;;0.70;;
14817;SDS011;7500;57.698;11.986;2023-03-01T11:50:02;5.53;;;0.73;;
14817;SDS011;7500;57.698;11.986;2023-03-01T11:52:42;8.37;;;0.83;;
14817;SDS011;7500;57.698;11.986;2023-03-01T11:55:24;4.27;;;0.30;;
14817;SDS011;7500;57.698;11.986;2023-03-01T11:58:07;4.00;;;0.43;;
14817;SDS011;7500;57.698;11.986;2023-03-01T12:00:47;2.53;;;0.80;;
14817;SDS011;7500;57.698;11.986;2023-03-01T12:03:28;2.83;;;0.67;;
14817;SDS011;7500;57.698;11.986;2023-03-01T12:06:14;3.93;;;0.70;;
14817;SDS011;7500;57.698;11.986;2023-03-01T12:09:13;6.17;;;0.77;;
14817;SDS011;7500;57.698;11.986;2023-03-01T12:11:54;12.30;;;1.30;;
14817;SDS011;7500;57.698;11.986;2023-03-01T12:14:37;1.27;;;0.67;;
14817;SDS011;7500;57.698;11.986;2023-03-01T12:20:26;3.33;;;0.60;;
14817;SDS011;7500;57.698;11.986;2023-03-01T12:23:01;4.50;;;0.40;;
14817;SDS011;7500;57.698;11.986;2023-03-01T12:25:48;1.93;;;0.70;;
14817;SDS011;7500;57.698;11.986;2023-03-01T12:28:39;1.67;;;0.50;;
14817;SDS011;7500;57.698;11.986;2023-03-01T12:34:21;5.20;;;0.80;;
14817;SDS011;7500;57.698;11.986;2023-03-01T12:37:10;7.07;;;0.60;;
14817;SDS011;7500;57.698;11.986;2023-03-01T12:39:45;2.07;;;0.40;;
14817;SDS011;7500;57.698;11.986;2023-03-01T12:42:23;1.03;;;0.60;;
14817;SDS011;7500;57.698;11.986;2023-03-01T12:48:02;3.40;;;0.60;;
14817;SDS011;7500;57.698;11.986;2023-03-01T12:50:38;2.80;;;0.33;;
14817;SDS011;7500;57.698;11.986;2023-03-01T12:53:14;0.60;;;0.30;;
14817;SDS011;7500;57.698;11.986;2023-03-01T12:55:48;4.37;;;0.63;;
14817;SDS011;7500;57.698;11.986;2023-03-01T12:58:20;1.77;;;0.70;;
14817;SDS011;7500;57.698;11.986;2023-03-01T13:00:53;2.13;;;0.50;;
14817;SDS011;7500;57.698;11.986;2023-03-01T13:03:33;4.03;;;0.57;;
14817;SDS011;7500;57.698;11.986;2023-03-01T13:06:11;8.50;;;0.73;;
14817;SDS011;7500;57.698;11.986;2023-03-01T13:08:47;4.07;;;0.60;;
14817;SDS011;7500;57.698;11.986;2023-03-01T13:11:19;4.17;;;0.57;;
14817;SDS011;7500;57.698;11.986;2023-03-01T13:13:48;2.10;;;0.40;;
14817;SDS011;7500;57.698;11.986;2023-03-01T13:16:21;1.60;;;0.50;;
14817;SDS011;7500;57.698;11.986;2023-03-01T13:19:10;2.93;;;0.50;;
14817;SDS011;7500;57.698;11.986;2023-03-01T13:21:41;3.83;;;0.50;;
14817;SDS011;7500;57.698;11.986;2023-03-01T13:24:38;2.23;;;0.63;;
14817;SDS011;7500;57.698;11.986;2023-03-01T13:27:10;0.83;;;0.30;;
14817;SDS011;7500;57.698;11.986;2023-03-01T13:29:50;2.50;;;0.33;;
14817;SDS011;7500;57.698;11.986;2023-03-01T13:32:20;2.33;;;0.50;;
14817;SDS011;7500;57.698;11.986;2023-03-01T13:34:50;0.43;;;0.40;;
14817;SDS011;7500;57.698;11.986;2023-03-01T13:37:28;1.90;;;0.50;;
14817;SDS011;7500;57.698;11.986;2023-03-01T13:40:01;2.37;;;0.60;;
14817;SDS011;7500;57.698;11.986;2023-03-01T13:42:33;3.57;;;0.77;;
14817;SDS011;7500;57.698;11.986;2023-03-01T13:45:04;5.43;;;0.57;;
14817;SDS011;7500;57.698;11.986;2023-03-01T13:47:42;4.10;;;0.50;;
14817;SDS011;7500;57.698;11.986;2023-03-01T13:50:18;2.73;;;0.67;;
14817;SDS011;7500;57.698;11.986;2023-03-01T13:52:48;2.63;;;0.30;;
14817;SDS011;7500;57.698;11.986;2023-03-01T13:55:19;0.97;;;0.37;;
14817;SDS011;7500;57.698;11.986;2023-03-01T13:57:49;2.00;;;0.50;;
14817;SDS011;7500;57.698;11.986;2023-03-01T14:00:27;4.03;;;0.90;;
14817;SDS011;7500;57.698;11.986;2023-03-01T14:03:03;5.13;;;0.70;;
14817;SDS011;7500;57.698;11.986;2023-03-01T14:05:36;4.03;;;0.37;;
14817;SDS011;7500;57.698;11.986;2023-03-01T14:08:05;4.70;;;0.40;;
14817;SDS011;7500;57.698;11.986;2023-03-01T14:10:52;1.30;;;0.63;;
14817;SDS011;7500;57.698;11.986;2023-03-01T14:13:26;1.43;;;0.63;;
14817;SDS011;7500;57.698;11.986;2023-03-01T14:16:06;2.53;;;0.70;;
14817;SDS011;7500;57.698;11.986;2023-03-01T14:18:47;4.20;;;0.60;;
14817;SDS011;7500;57.698;11.986;2023-03-01T14:21:23;5.43;;;0.57;;
14817;SDS011;7500;57.698;11.986;2023-03-01T14:23:51;5.03;;;0.90;;
14817;SDS011;7500;57.698;11.986;2023-03-01T14:26:20;5.67;;;0.80;;
14817;SDS011;7500;57.698;11.986;2023-03-01T14:28:48;5.20;;;0.57;;
14817;SDS011;7500;57.698;11.986;2023-03-01T14:31:31;5.97;;;0.70;;
14817;SDS011;7500;57.698;11.986;2023-03-01T14:34:01;2.90;;;0.40;;
14817;SDS011;7500;57.698;11.986;2023-03-01T14:36:29;2.50;;;0.50;;
14817;SDS011;7500;57.698;11.986;2023-03-01T14:38:57;4.17;;;0.40;;
14817;SDS011;7500;57.698;11.986;2023-03-01T14:41:30;2.57;;;0.50;;
14817;SDS011;7500;57.698;11.986;2023-03-01T14:44:00;1.07;;;0.43;;
14817;SDS011;7500;57.698;11.986;2023-03-01T14:46:30;4.00;;;0.50;;
14817;SDS011;7500;57.698;11.986;2023-03-01T14:49:01;3.23;;;0.60;;
14817;SDS011;7500;57.698;11.986;2023-03-01T14:51:36;2.23;;;0.60;;
14817;SDS011;7500;57.698;11.986;2023-03-01T14:54:10;6.97;;;0.63;;
14817;SDS011;7500;57.698;11.986;2023-03-01T14:56:47;5.43;;;0.53;;
14817;SDS011;7500;57.698;11.986;2023-03-01T14:59:14;2.70;;;0.90;;
14817;SDS011;7500;57.698;11.986;2023-03-01T15:01:41;1.33;;;0.70;;
14817;SDS011;7500;57.698;11.986;2023-03-01T15:04:11;0.97;;;0.87;;
14817;SDS011;7500;57.698;11.986;2023-03-01T15:06:41;1.37;;;0.60;;
14817;SDS011;7500;57.698;11.986;2023-03-01T15:09:11;3.40;;;0.73;;
14817;SDS011;7500;57.698;11.986;2023-03-01T15:11:42;3.43;;;0.60;;
14817;SDS011;7500;57.698;11.986;2023-03-01T15:14:25;1.23;;;0.50;;
14817;SDS011;7500;57.698;11.986;2023-03-01T15:16:54;2.07;;;0.60;;
14817;SDS011;7500;57.698;11.986;2023-03-01T15:19:21;0.80;;;0.73;;
14817;SDS011;7500;57.698;11.986;2023-03-01T15:21:55;2.83;;;0.70;;